sensor_id;sensor_type;location;lat;lon;timestamp;pressure;altitude;pressure_sealevel;temperature;humidity
73429;BME280;61643;49.564;17.412;2023-07-13T00:00:26;97791.81;;;19.50;96.21
73429;BME280;61643;49.564;17.412;2023-07-13T00:02:53;97795.34;;;19.59;95.62
73429;BME280;61643;49.564;17.412;2023-07-13T00:05:22;97794.53;;;19.58;95.95
73429;BME280;61643;49.564;17.412;2023-07-13T00:07:50;97793.28;;;19.56;95.68
73429;BME280;61643;49.564;17.412;2023-07-13T00:10:16;97792.94;;;19.57;95.91
73429;BME280;61643;49.564;17.412;2023-07-13T00:12:43;97799.19;;;19.58;95.60
73429;BME280;61643;49.564;17.412;2023-07-13T00:15:24;97795.84;;;19.52;95.71
73429;BME280;61643;49.564;17.412;2023-07-13T00:17:54;97789.44;;;19.57;93.10
73429;BME280;61643;49.564;17.412;2023-07-13T00:20:22;97794.41;;;19.55;91.95
73429;BME280;61643;49.564;17.412;2023-07-13T00:22:51;97788.63;;;19.48;91.33
73429;BME280;61643;49.564;17.412;2023-07-13T00:25:20;97794.75;;;19.45;91.55
73429;BME280;61643;49.564;17.412;2023-07-13T00:27:47;97801.31;;;19.44;92.18
73429;BME280;61643;49.564;17.412;2023-07-13T00:30:14;97792.34;;;19.00;96.01
73429;BME280;61643;49.564;17.412;2023-07-13T00:32:40;97801.81;;;19.11;95.35
73429;BME280;61643;49.564;17.412;2023-07-13T00:35:07;97809.50;;;19.27;94.55
73429;BME280;61643;49.564;17.412;2023-07-13T00:37:33;97815.59;;;19.06;96.53
73429;BME280;61643;49.564;17.412;2023-07-13T00:40:05;97831.66;;;18.99;97.54
73429;BME280;61643;49.564;17.412;2023-07-13T00:42:31;97840.16;;;18.98;97.70
73429;BME280;61643;49.564;17.412;2023-07-13T00:47:31;97829.03;;;18.60;100.00
73429;BME280;61643;49.564;17.412;2023-07-13T00:49:57;97826.81;;;18.62;100.00
73429;BME280;61643;49.564;17.412;2023-07-13T00:52:23;97826.50;;;18.72;99.25
73429;BME280;61643;49.564;17.412;2023-07-13T00:54:49;97820.09;;;18.77;98.86
73429;BME280;61643;49.564;17.412;2023-07-13T00:57:18;97811.59;;;18.78;99.34
73429;BME280;61643;49.564;17.412;2023-07-13T00:59:50;97805.31;;;18.78;100.00
73429;BME280;61643;49.564;17.412;2023-07-13T01:02:17;97799.72;;;18.83;100.00
73429;BME280;61643;49.564;17.412;2023-07-13T01:04:44;97804.22;;;18.96;100.00
73429;BME280;61643;49.564;17.412;2023-07-13T01:07:11;97801.66;;;18.91;100.00
73429;BME280;61643;49.564;17.412;2023-07-13T01:09:38;97800.19;;;18.85;100.00
73429;BME280;61643;49.564;17.412;2023-07-13T01:12:04;97806.78;;;18.75;100.00
73429;BME280;61643;49.564;17.412;2023-07-13T01:14:30;97791.09;;;18.81;100.00
73429;BME280;61643;49.564;17.412;2023-07-13T01:16:56;97782.56;;;18.82;100.00
73429;BME280;61643;49.564;17.412;2023-07-13T01:19:36;97792.19;;;18.88;100.00
73429;BME280;61643;49.564;17.412;2023-07-13T01:22:14;97784.66;;;18.94;100.00
73429;BME280;61643;49.564;17.412;2023-07-13T01:24:43;97792.53;;;18.95;100.00
73429;BME280;61643;49.564;17.412;2023-07-13T01:27:11;97790.28;;;18.97;100.00
73429;BME280;61643;49.564;17.412;2023-07-13T01:29:39;97795.56;;;18.94;100.00
73429;BME280;61643;49.564;17.412;2023-07-13T01:32:10;97802.78;;;18.90;100.00
73429;BME280;61643;49.564;17.412;2023-07-13T01:34:36;97809.81;;;18.99;100.00
73429;BME280;61643;49.564;17.412;2023-07-13T01:37:04;97805.03;;;18.96;100.00
73429;BME280;61643;49.564;17.412;2023-07-13T01:39:30;97813.84;;;18.85;100.00
73429;BME280;61643;49.564;17.412;2023-07-13T01:41:57;97805.66;;;18.93;100.00
73429;BME280;61643;49.564;17.412;2023-07-13T01:44:23;97804.22;;;18.79;100.00
73429;BME280;61643;49.564;17.412;2023-07-13T01:46:49;97803.59;;;18.90;100.00
73429;BME280;61643;49.564;17.412;2023-07-13T01:49:15;97799.41;;;18.84;100.00
73429;BME280;61643;49.564;17.412;2023-07-13T01:51:41;97799.25;;;18.72;100.00
73429;BME280;61643;49.564;17.412;2023-07-13T01:54:07;97786.72;;;18.71;100.00
73429;BME280;61643;49.564;17.412;2023-07-13T01:56:33;97772.94;;;18.59;100.00
73429;BME280;61643;49.564;17.412;2023-07-13T01:58:59;97777.41;;;18.63;100.00
73429;BME280;61643;49.564;17.412;2023-07-13T02:01:25;97771.16;;;18.63;100.00
73429;BME280;61643;49.564;17.412;2023-07-13T02:03:51;97764.28;;;18.65;100.00
73429;BME280;61643;49.564;17.412;2023-07-13T02:06:17;97767.50;;;18.59;100.00
73429;BME280;61643;49.564;17.412;2023-07-13T02:08:43;97752.41;;;18.53;100.00
73429;BME280;61643;49.564;17.412;2023-07-13T02:11:09;97745.81;;;18.54;100.00
73429;BME280;61643;49.564;17.412;2023-07-13T02:13:35;97744.38;;;18.56;100.00
73429;BME280;61643;49.564;17.412;2023-07-13T02:16:01;97759.63;;;18.66;100.00
73429;BME280;61643;49.564;17.412;2023-07-13T02:18:27;97763.16;;;18.75;100.00
73429;BME280;61643;49.564;17.412;2023-07-13T02:20:54;97758.34;;;18.89;99.29
73429;BME280;61643;49.564;17.412;2023-07-13T02:23:20;97758.53;;;18.84;100.00
73429;BME280;61643;49.564;17.412;2023-07-13T02:25:46;97758.19;;;18.94;99.59
73429;BME280;61643;49.564;17.412;2023-07-13T02:28:12;97762.50;;;19.04;99.26
73429;BME280;61643;49.564;17.412;2023-07-13T02:30:38;97765.22;;;19.04;99.49
73429;BME280;61643;49.564;17.412;2023-07-13T02:33:05;97770.38;;;18.97;100.00
73429;BME280;61643;49.564;17.412;2023-07-13T02:35:31;97771.00;;;18.85;100.00
73429;BME280;61643;49.564;17.412;2023-07-13T02:37:57;97771.50;;;18.79;100.00
73429;BME280;61643;49.564;17.412;2023-07-13T02:40:23;97770.69;;;18.78;100.00
73429;BME280;61643;49.564;17.412;2023-07-13T02:42:49;97772.31;;;18.88;100.00
73429;BME280;61643;49.564;17.412;2023-07-13T02:45:15;97767.97;;;18.87;100.00
73429;BME280;61643;49.564;17.412;2023-07-13T02:47:41;97769.09;;;18.77;99.05
73429;BME280;61643;49.564;17.412;2023-07-13T02:50:08;97769.91;;;18.86;97.73
73429;BME280;61643;49.564;17.412;2023-07-13T02:52:34;97745.66;;;18.93;95.20
73429;BME280;61643;49.564;17.412;2023-07-13T02:55:00;97751.59;;;19.12;93.38
73429;BME280;61643;49.564;17.412;2023-07-13T02:57:26;97747.88;;;19.26;91.77
73429;BME280;61643;49.564;17.412;2023-07-13T02:59:53;97744.78;;;19.36;91.06
73429;BME280;61643;49.564;17.412;2023-07-13T03:02:20;97739.16;;;19.41;90.25
73429;BME280;61643;49.564;17.412;2023-07-13T03:04:46;97740.63;;;19.47;90.26
73429;BME280;61643;49.564;17.412;2023-07-13T03:07:12;97752.19;;;19.52;90.28
73429;BME280;61643;49.564;17.412;2023-07-13T03:09:39;97757.31;;;19.54;89.96
73429;BME280;61643;49.564;17.412;2023-07-13T03:12:05;97764.88;;;19.57;90.04
73429;BME280;61643;49.564;17.412;2023-07-13T03:14:32;97778.81;;;19.55;90.60
73429;BME280;61643;49.564;17.412;2023-07-13T03:16:58;97785.25;;;19.51;92.65
73429;BME280;61643;49.564;17.412;2023-07-13T03:19:24;97787.84;;;19.39;93.36
73429;BME280;61643;49.564;17.412;2023-07-13T03:21:50;97787.69;;;19.27;95.95
73429;BME280;61643;49.564;17.412;2023-07-13T03:24:15;97788.50;;;19.18;96.33
73429;BME280;61643;49.564;17.412;2023-07-13T03:26:41;97788.97;;;19.21;96.23
73429;BME280;61643;49.564;17.412;2023-07-13T03:29:07;97789.44;;;19.23;96.02
73429;BME280;61643;49.564;17.412;2023-07-13T03:31:37;97794.44;;;19.21;96.63
73429;BME280;61643;49.564;17.412;2023-07-13T03:34:03;97788.66;;;19.22;96.34
73429;BME280;61643;49.564;17.412;2023-07-13T03:36:30;97805.81;;;19.31;95.17
73429;BME280;61643;49.564;17.412;2023-07-13T03:38:59;97804.97;;;19.39;95.31
73429;BME280;61643;49.564;17.412;2023-07-13T03:41:25;97816.25;;;19.38;96.06
73429;BME280;61643;49.564;17.412;2023-07-13T03:43:52;97831.34;;;19.44;95.56
73429;BME280;61643;49.564;17.412;2023-07-13T03:46:19;97821.84;;;19.33;96.50
73429;BME280;61643;49.564;17.412;2023-07-13T03:48:46;97829.56;;;19.22;97.70
73429;BME280;61643;49.564;17.412;2023-07-13T03:51:14;97826.38;;;19.11;98.46
73429;BME280;61643;49.564;17.412;2023-07-13T03:53:42;97824.59;;;19.07;99.06
73429;BME280;61643;49.564;17.412;2023-07-13T03:56:08;97826.69;;;19.01;98.74
73429;BME280;61643;49.564;17.412;2023-07-13T03:58:36;97822.50;;;19.04;98.64
73429;BME280;61643;49.564;17.412;2023-07-13T04:01:04;97838.25;;;19.15;98.63
73429;BME280;61643;49.564;17.412;2023-07-13T04:03:32;97844.00;;;19.14;99.78
73429;BME280;61643;49.564;17.412;2023-07-13T04:05:59;97847.25;;;19.16;99.48
73429;BME280;61643;49.564;17.412;2023-07-13T04:08:27;97856.06;;;19.22;99.17
73429;BME280;61643;49.564;17.412;2023-07-13T04:10:53;97864.56;;;19.29;98.88
73429;BME280;61643;49.564;17.412;2023-07-13T04:13:19;97854.94;;;19.31;99.32
73429;BME280;61643;49.564;17.412;2023-07-13T04:15:45;97862.13;;;19.36;98.75
73429;BME280;61643;49.564;17.412;2023-07-13T04:18:11;97862.81;;;19.41;99.79
73429;BME280;61643;49.564;17.412;2023-07-13T04:20:37;97868.44;;;19.45;99.47
73429;BME280;61643;49.564;17.412;2023-07-13T04:23:03;97878.56;;;19.53;98.57
73429;BME280;61643;49.564;17.412;2023-07-13T04:25:29;97878.38;;;19.58;97.71
73429;BME280;61643;49.564;17.412;2023-07-13T04:27:56;97874.53;;;19.59;97.96
73429;BME280;61643;49.564;17.412;2023-07-13T04:30:22;97875.94;;;19.65;97.56
73429;BME280;61643;49.564;17.412;2023-07-13T04:32:52;97864.38;;;19.68;97.26
73429;BME280;61643;49.564;17.412;2023-07-13T04:35:21;97874.34;;;19.73;97.01
73429;BME280;61643;49.564;17.412;2023-07-13T04:37:50;97868.88;;;19.81;96.62
73429;BME280;61643;49.564;17.412;2023-07-13T04:40:20;97856.81;;;19.82;96.60
73429;BME280;61643;49.564;17.412;2023-07-13T04:42:46;97866.28;;;19.76;99.82
73429;BME280;61643;49.564;17.412;2023-07-13T04:45:14;97850.56;;;19.82;98.32
73429;BME280;61643;49.564;17.412;2023-07-13T04:47:41;97848.50;;;19.70;99.88
73429;BME280;61643;49.564;17.412;2023-07-13T04:50:08;97849.91;;;19.76;99.38
73429;BME280;61643;49.564;17.412;2023-07-13T04:52:34;97850.25;;;19.66;100.00
73429;BME280;61643;49.564;17.412;2023-07-13T04:55:00;97847.38;;;19.54;100.00
73429;BME280;61643;49.564;17.412;2023-07-13T04:57:27;97849.34;;;19.45;100.00
73429;BME280;61643;49.564;17.412;2023-07-13T04:59:53;97849.94;;;19.33;100.00
73429;BME280;61643;49.564;17.412;2023-07-13T05:02:22;97835.03;;;19.31;100.00
73429;BME280;61643;49.564;17.412;2023-07-13T05:04:48;97835.34;;;19.29;100.00
73429;BME280;61643;49.564;17.412;2023-07-13T05:07:14;97823.00;;;19.23;100.00
73429;BME280;61643;49.564;17.412;2023-07-13T05:09:40;97840.81;;;19.38;100.00
73429;BME280;61643;49.564;17.412;2023-07-13T05:12:08;97840.66;;;19.51;100.00
73429;BME280;61643;49.564;17.412;2023-07-13T05:14:34;97849.81;;;19.55;100.00
73429;BME280;61643;49.564;17.412;2023-07-13T05:17:00;97845.31;;;19.59;100.00
73429;BME280;61643;49.564;17.412;2023-07-13T05:19:27;97856.03;;;19.73;100.00
73429;BME280;61643;49.564;17.412;2023-07-13T05:21:53;97856.34;;;19.80;100.00
73429;BME280;61643;49.564;17.412;2023-07-13T05:24:19;97861.28;;;19.87;100.00
73429;BME280;61643;49.564;17.412;2023-07-13T05:26:45;97857.44;;;19.79;100.00
73429;BME280;61643;49.564;17.412;2023-07-13T05:29:11;97853.00;;;19.75;100.00
73429;BME280;61643;49.564;17.412;2023-07-13T05:31:37;97857.91;;;19.90;100.00
73429;BME280;61643;49.564;17.412;2023-07-13T05:34:03;97862.22;;;19.99;100.00
73429;BME280;61643;49.564;17.412;2023-07-13T05:36:29;97859.81;;;20.06;100.00
73429;BME280;61643;49.564;17.412;2023-07-13T05:38:55;97871.84;;;20.14;100.00
73429;BME280;61643;49.564;17.412;2023-07-13T05:41:21;97874.06;;;20.12;100.00
73429;BME280;61643;49.564;17.412;2023-07-13T05:43:47;97869.78;;;20.02;100.00
73429;BME280;61643;49.564;17.412;2023-07-13T05:46:13;97869.59;;;20.07;100.00
73429;BME280;61643;49.564;17.412;2023-07-13T05:48:39;97865.59;;;20.05;100.00
73429;BME280;61643;49.564;17.412;2023-07-13T05:51:05;97867.50;;;20.04;100.00
73429;BME280;61643;49.564;17.412;2023-07-13T05:53:31;97860.91;;;20.05;100.00
73429;BME280;61643;49.564;17.412;2023-07-13T05:55:57;97865.41;;;20.10;100.00
73429;BME280;61643;49.564;17.412;2023-07-13T05:58:23;97871.03;;;20.13;100.00
73429;BME280;61643;49.564;17.412;2023-07-13T06:00:59;97874.38;;;20.19;100.00
73429;BME280;61643;49.564;17.412;2023-07-13T06:03:26;97865.69;;;20.26;100.00
73429;BME280;61643;49.564;17.412;2023-07-13T06:05:52;97863.22;;;20.41;100.00
73429;BME280;61643;49.564;17.412;2023-07-13T06:08:17;97864.81;;;20.42;100.00
73429;BME280;61643;49.564;17.412;2023-07-13T06:10:43;97861.13;;;20.47;100.00
73429;BME280;61643;49.564;17.412;2023-07-13T06:13:09;97863.19;;;20.50;100.00
73429;BME280;61643;49.564;17.412;2023-07-13T06:15:35;97858.31;;;20.55;100.00
73429;BME280;61643;49.564;17.412;2023-07-13T06:18:01;97858.28;;;20.64;100.00
73429;BME280;61643;49.564;17.412;2023-07-13T06:20:28;97859.09;;;20.65;100.00
73429;BME280;61643;49.564;17.412;2023-07-13T06:22:54;97863.41;;;20.66;100.00
73429;BME280;61643;49.564;17.412;2023-07-13T06:25:20;97861.81;;;20.65;100.00
73429;BME280;61643;49.564;17.412;2023-07-13T06:27:46;97878.03;;;20.70;100.00
73429;BME280;61643;49.564;17.412;2023-07-13T06:30:13;97858.38;;;20.76;100.00
73429;BME280;61643;49.564;17.412;2023-07-13T06:32:38;97861.03;;;20.85;100.00
73429;BME280;61643;49.564;17.412;2023-07-13T06:35:05;97869.38;;;20.88;100.00
73429;BME280;61643;49.564;17.412;2023-07-13T06:37:31;97866.47;;;20.93;100.00
73429;BME280;61643;49.564;17.412;2023-07-13T06:39:57;97869.66;;;20.95;100.00
73429;BME280;61643;49.564;17.412;2023-07-13T06:42:23;97863.19;;;21.00;100.00
73429;BME280;61643;49.564;17.412;2023-07-13T06:44:49;97870.59;;;20.99;100.00
73429;BME280;61643;49.564;17.412;2023-07-13T06:47:15;97870.28;;;21.01;100.00
73429;BME280;61643;49.564;17.412;2023-07-13T06:49:41;97870.88;;;21.06;100.00
73429;BME280;61643;49.564;17.412;2023-07-13T06:52:07;97876.69;;;21.05;100.00
73429;BME280;61643;49.564;17.412;2023-07-13T06:54:33;97873.22;;;21.17;100.00
73429;BME280;61643;49.564;17.412;2023-07-13T06:57:01;97877.94;;;21.07;100.00
73429;BME280;61643;49.564;17.412;2023-07-13T06:59:27;97881.78;;;21.15;100.00
73429;BME280;61643;49.564;17.412;2023-07-13T07:01:53;97877.72;;;21.21;100.00
73429;BME280;61643;49.564;17.412;2023-07-13T07:04:19;97875.91;;;21.25;100.00
73429;BME280;61643;49.564;17.412;2023-07-13T07:06:45;97881.00;;;21.15;100.00
73429;BME280;61643;49.564;17.412;2023-07-13T07:09:11;97885.34;;;21.16;100.00
73429;BME280;61643;49.564;17.412;2023-07-13T07:11:37;97894.34;;;21.16;100.00
73429;BME280;61643;49.564;17.412;2023-07-13T07:14:03;97894.00;;;21.18;100.00
73429;BME280;61643;49.564;17.412;2023-07-13T07:16:30;97893.00;;;21.22;100.00
73429;BME280;61643;49.564;17.412;2023-07-13T07:18:57;97897.13;;;21.28;100.00
73429;BME280;61643;49.564;17.412;2023-07-13T07:21:23;97896.94;;;21.33;99.63
73429;BME280;61643;49.564;17.412;2023-07-13T07:23:49;97900.63;;;21.37;100.00
73429;BME280;61643;49.564;17.412;2023-07-13T07:26:15;97898.47;;;21.43;99.77
73429;BME280;61643;49.564;17.412;2023-07-13T07:28:41;97898.28;;;21.48;99.12
73429;BME280;61643;49.564;17.412;2023-07-13T07:31:07;97892.94;;;21.51;99.44
73429;BME280;61643;49.564;17.412;2023-07-13T07:33:33;97893.81;;;21.43;99.21
73429;BME280;61643;49.564;17.412;2023-07-13T07:36:00;97895.75;;;21.43;100.00
73429;BME280;61643;49.564;17.412;2023-07-13T07:38:26;97890.81;;;21.36;100.00
73429;BME280;61643;49.564;17.412;2023-07-13T07:40:53;97900.69;;;21.29;100.00
73429;BME280;61643;49.564;17.412;2023-07-13T07:43:19;97900.81;;;21.32;100.00
73429;BME280;61643;49.564;17.412;2023-07-13T07:45:45;97895.03;;;21.34;100.00
73429;BME280;61643;49.564;17.412;2023-07-13T07:48:11;97908.50;;;21.39;100.00
73429;BME280;61643;49.564;17.412;2023-07-13T07:50:38;97913.50;;;21.37;100.00
73429;BME280;61643;49.564;17.412;2023-07-13T07:53:06;97905.97;;;21.34;100.00
73429;BME280;61643;49.564;17.412;2023-07-13T07:55:36;97912.56;;;21.33;100.00
73429;BME280;61643;49.564;17.412;2023-07-13T07:58:02;97914.97;;;21.34;100.00
73429;BME280;61643;49.564;17.412;2023-07-13T08:00:28;97921.47;;;21.30;100.00
73429;BME280;61643;49.564;17.412;2023-07-13T08:02:58;97929.81;;;21.33;100.00
73429;BME280;61643;49.564;17.412;2023-07-13T08:05:24;97929.00;;;21.33;100.00
73429;BME280;61643;49.564;17.412;2023-07-13T08:07:51;97929.31;;;21.31;100.00
73429;BME280;61643;49.564;17.412;2023-07-13T08:10:17;97928.81;;;21.08;100.00
73429;BME280;61643;49.564;17.412;2023-07-13T08:12:43;97929.13;;;21.16;100.00
73429;BME280;61643;49.564;17.412;2023-07-13T08:15:11;97929.31;;;21.10;100.00
73429;BME280;61643;49.564;17.412;2023-07-13T08:17:38;97937.03;;;21.08;100.00
73429;BME280;61643;49.564;17.412;2023-07-13T08:20:04;97933.50;;;21.08;100.00
73429;BME280;61643;49.564;17.412;2023-07-13T08:22:31;97931.06;;;21.06;100.00
73429;BME280;61643;49.564;17.412;2023-07-13T08:24:59;97933.66;;;21.12;100.00
73429;BME280;61643;49.564;17.412;2023-07-13T08:27:26;97926.56;;;21.10;100.00
73429;BME280;61643;49.564;17.412;2023-07-13T08:29:53;97948.16;;;21.03;100.00
73429;BME280;61643;49.564;17.412;2023-07-13T08:32:20;97945.75;;;21.02;100.00
73429;BME280;61643;49.564;17.412;2023-07-13T08:34:46;97943.81;;;21.02;100.00
73429;BME280;61643;49.564;17.412;2023-07-13T08:37:13;97945.41;;;21.03;100.00
73429;BME280;61643;49.564;17.412;2023-07-13T08:39:39;97947.03;;;21.04;100.00
73429;BME280;61643;49.564;17.412;2023-07-13T08:42:13;97950.63;;;20.96;100.00
73429;BME280;61643;49.564;17.412;2023-07-13T08:47:21;97946.75;;;20.97;100.00
73429;BME280;61643;49.564;17.412;2023-07-13T08:49:48;97958.16;;;20.99;100.00
73429;BME280;61643;49.564;17.412;2023-07-13T08:52:32;97965.78;;;20.94;100.00
73429;BME280;61643;49.564;17.412;2023-07-13T08:55:04;97955.69;;;21.06;100.00
73429;BME280;61643;49.564;17.412;2023-07-13T08:57:34;97957.13;;;21.13;100.00
73429;BME280;61643;49.564;17.412;2023-07-13T09:00:00;97950.53;;;21.14;100.00
73429;BME280;61643;49.564;17.412;2023-07-13T09:05:04;97958.84;;;21.26;100.00
73429;BME280;61643;49.564;17.412;2023-07-13T09:07:41;97960.78;;;21.46;100.00
73429;BME280;61643;49.564;17.412;2023-07-13T09:10:18;97964.28;;;21.55;100.00
73429;BME280;61643;49.564;17.412;2023-07-13T09:13:12;97958.72;;;21.64;100.00
73429;BME280;61643;49.564;17.412;2023-07-13T09:15:46;97961.38;;;21.72;100.00
73429;BME280;61643;49.564;17.412;2023-07-13T09:18:23;97964.06;;;21.81;100.00
73429;BME280;61643;49.564;17.412;2023-07-13T09:20:55;97970.31;;;21.81;100.00
73429;BME280;61643;49.564;17.412;2023-07-13T09:23:24;97965.13;;;21.88;100.00
73429;BME280;61643;49.564;17.412;2023-07-13T09:25:54;97969.88;;;21.79;100.00
73429;BME280;61643;49.564;17.412;2023-07-13T09:28:27;97963.84;;;21.86;100.00
73429;BME280;61643;49.564;17.412;2023-07-13T09:31:11;97969.44;;;21.89;100.00
73429;BME280;61643;49.564;17.412;2023-07-13T09:33:39;97965.41;;;21.95;100.00
73429;BME280;61643;49.564;17.412;2023-07-13T09:36:32;97971.59;;;22.04;100.00
73429;BME280;61643;49.564;17.412;2023-07-13T09:41:36;97963.56;;;22.32;100.00
73429;BME280;61643;49.564;17.412;2023-07-13T09:44:15;97957.91;;;22.49;100.00
73429;BME280;61643;49.564;17.412;2023-07-13T09:46:47;97971.25;;;22.72;100.00
73429;BME280;61643;49.564;17.412;2023-07-13T09:49:17;97968.38;;;22.80;100.00
73429;BME280;61643;49.564;17.412;2023-07-13T09:51:44;97971.75;;;22.65;100.00
73429;BME280;61643;49.564;17.412;2023-07-13T09:54:21;97974.31;;;22.94;100.00
73429;BME280;61643;49.564;17.412;2023-07-13T09:56:47;97978.31;;;23.09;100.00
73429;BME280;61643;49.564;17.412;2023-07-13T09:59:26;97981.66;;;23.15;100.00
73429;BME280;61643;49.564;17.412;2023-07-13T10:01:54;97981.63;;;22.90;100.00
73429;BME280;61643;49.564;17.412;2023-07-13T10:04:31;97977.66;;;23.00;97.82
73429;BME280;61643;49.564;17.412;2023-07-13T10:07:12;97974.78;;;22.84;100.00
73429;BME280;61643;49.564;17.412;2023-07-13T10:09:39;97969.06;;;22.89;100.00
73429;BME280;61643;49.564;17.412;2023-07-13T10:12:14;97985.41;;;22.98;100.00
73429;BME280;61643;49.564;17.412;2023-07-13T10:14:41;97991.13;;;22.93;100.00
73429;BME280;61643;49.564;17.412;2023-07-13T10:17:13;98000.38;;;22.43;94.40
73429;BME280;61643;49.564;17.412;2023-07-13T10:19:41;98003.91;;;21.99;96.66
73429;BME280;61643;49.564;17.412;2023-07-13T10:22:30;98006.34;;;21.50;98.75
73429;BME280;61643;49.564;17.412;2023-07-13T10:24:59;98004.56;;;21.25;99.76
73429;BME280;61643;49.564;17.412;2023-07-13T10:27:33;98019.63;;;21.10;100.00
73429;BME280;61643;49.564;17.412;2023-07-13T10:30:01;98016.59;;;20.95;99.11
73429;BME280;61643;49.564;17.412;2023-07-13T10:32:30;98018.66;;;21.06;100.00
73429;BME280;61643;49.564;17.412;2023-07-13T10:34:56;98017.28;;;21.30;99.09
73429;BME280;61643;49.564;17.412;2023-07-13T10:37:36;98017.94;;;21.27;95.91
73429;BME280;61643;49.564;17.412;2023-07-13T10:40:05;98019.06;;;21.26;95.51
73429;BME280;61643;49.564;17.412;2023-07-13T10:42:40;98027.44;;;21.21;95.62
73429;BME280;61643;49.564;17.412;2023-07-13T10:45:18;98016.66;;;21.24;95.31
73429;BME280;61643;49.564;17.412;2023-07-13T10:47:45;98033.56;;;21.26;94.45
73429;BME280;61643;49.564;17.412;2023-07-13T10:50:17;98029.22;;;21.25;95.15
73429;BME280;61643;49.564;17.412;2023-07-13T10:52:50;98032.09;;;21.29;93.93
73429;BME280;61643;49.564;17.412;2023-07-13T10:55:54;98028.78;;;21.44;93.32
73429;BME280;61643;49.564;17.412;2023-07-13T10:58:35;98020.00;;;21.59;94.19
73429;BME280;61643;49.564;17.412;2023-07-13T11:01:13;98018.88;;;21.81;92.73
73429;BME280;61643;49.564;17.412;2023-07-13T11:06:42;98028.47;;;21.66;89.50
73429;BME280;61643;49.564;17.412;2023-07-13T11:12:06;98039.44;;;21.66;88.98
73429;BME280;61643;49.564;17.412;2023-07-13T11:15:04;98041.91;;;21.59;88.25
73429;BME280;61643;49.564;17.412;2023-07-13T11:25:32;98041.47;;;21.98;85.53
73429;BME280;61643;49.564;17.412;2023-07-13T11:30:49;98037.84;;;22.27;85.16
73429;BME280;61643;49.564;17.412;2023-07-13T11:40:50;98035.72;;;22.12;84.86
73429;BME280;61643;49.564;17.412;2023-07-13T11:43:19;98023.25;;;22.15;86.89
73429;BME280;61643;49.564;17.412;2023-07-13T11:45:45;98033.84;;;22.37;84.65
73429;BME280;61643;49.564;17.412;2023-07-13T11:48:22;98030.72;;;22.59;82.43
73429;BME280;61643;49.564;17.412;2023-07-13T11:50:58;98030.78;;;22.83;83.58
73429;BME280;61643;49.564;17.412;2023-07-13T11:53:27;98013.88;;;23.05;83.02
73429;BME280;61643;49.564;17.412;2023-07-13T11:55:54;98016.16;;;23.16;82.42
73429;BME280;61643;49.564;17.412;2023-07-13T11:58:23;98005.53;;;23.26;82.28
73429;BME280;61643;49.564;17.412;2023-07-13T12:00:51;98018.47;;;23.38;80.94
73429;BME280;61643;49.564;17.412;2023-07-13T12:03:21;98019.41;;;23.42;80.11
73429;BME280;61643;49.564;17.412;2023-07-13T12:06:04;98025.13;;;23.25;77.92
73429;BME280;61643;49.564;17.412;2023-07-13T12:08:39;98013.66;;;23.35;78.94
73429;BME280;61643;49.564;17.412;2023-07-13T12:11:16;98031.75;;;23.24;77.26
73429;BME280;61643;49.564;17.412;2023-07-13T12:13:44;98024.06;;;23.66;78.96
73429;BME280;61643;49.564;17.412;2023-07-13T12:18:53;98023.72;;;23.67;75.79
73429;BME280;61643;49.564;17.412;2023-07-13T12:21:19;98019.66;;;23.77;77.19
73429;BME280;61643;49.564;17.412;2023-07-13T12:23:48;98019.94;;;23.72;75.59
73429;BME280;61643;49.564;17.412;2023-07-13T12:26:15;98015.75;;;23.50;75.76
73429;BME280;61643;49.564;17.412;2023-07-13T12:28:56;98015.59;;;23.59;75.32
73429;BME280;61643;49.564;17.412;2023-07-13T12:34:10;98002.94;;;24.22;75.29
73429;BME280;61643;49.564;17.412;2023-07-13T12:36:56;98011.16;;;24.34;76.00
73429;BME280;61643;49.564;17.412;2023-07-13T12:39:32;98011.19;;;24.22;73.06
73429;BME280;61643;49.564;17.412;2023-07-13T12:44:58;98021.28;;;24.18;74.04
73429;BME280;61643;49.564;17.412;2023-07-13T12:47:27;98010.31;;;24.06;74.17
73429;BME280;61643;49.564;17.412;2023-07-13T12:49:56;98005.94;;;24.17;73.13
73429;BME280;61643;49.564;17.412;2023-07-13T12:52:27;98011.22;;;24.10;74.16
73429;BME280;61643;49.564;17.412;2023-07-13T12:55:05;98001.94;;;24.02;73.09
73429;BME280;61643;49.564;17.412;2023-07-13T12:57:58;98001.00;;;23.82;72.48
73429;BME280;61643;49.564;17.412;2023-07-13T13:00:37;97985.66;;;23.81;73.29
73429;BME280;61643;49.564;17.412;2023-07-13T13:03:21;97985.34;;;23.71;72.43
73429;BME280;61643;49.564;17.412;2023-07-13T13:05:47;97980.00;;;23.62;73.46
73429;BME280;61643;49.564;17.412;2023-07-13T13:08:13;97986.47;;;23.70;73.11
73429;BME280;61643;49.564;17.412;2023-07-13T13:10:39;97995.69;;;23.62;72.89
73429;BME280;61643;49.564;17.412;2023-07-13T13:13:06;97984.94;;;23.57;72.80
73429;BME280;61643;49.564;17.412;2023-07-13T13:15:32;97984.13;;;23.56;71.00
73429;BME280;61643;49.564;17.412;2023-07-13T13:17:58;97987.97;;;23.79;72.54
73429;BME280;61643;49.564;17.412;2023-07-13T13:20:25;97985.78;;;24.13;68.17
73429;BME280;61643;49.564;17.412;2023-07-13T13:22:51;97986.94;;;24.39;67.23
73429;BME280;61643;49.564;17.412;2023-07-13T13:25:18;97987.66;;;24.52;67.46
73429;BME280;61643;49.564;17.412;2023-07-13T13:27:45;97975.84;;;24.67;65.95
73429;BME280;61643;49.564;17.412;2023-07-13T13:30:12;97966.00;;;24.82;65.28
73429;BME280;61643;49.564;17.412;2023-07-13T13:32:43;97959.88;;;24.73;65.47
73429;BME280;61643;49.564;17.412;2023-07-13T13:35:14;97972.13;;;24.75;64.37